Time;durP1;ratioP1;P1;durP2;ratioP2;P2;SDS_P1;SDS_P2;PMS_P1;PMS_P2;Temp;Humidity;BMP_temperature;BMP_pressure;BME280_temperature;BME280_humidity;BME280_pressure;Samples;Min_cycle;Max_cycle;Signal;HPM_P1;HPM_P2
2021/01/24 00:00:55;;;;;;;1.50;0.80;;;19.60;45.10;;;;;;6206892;28;20085;-53
2021/01/24 00:03:56;;;;;;;1.10;1.00;;;19.60;45.10;;;;;;6193570;28;20539;-50
2021/01/24 00:06:56;;;;;;;0.85;0.80;;;19.60;45.10;;;;;;6215993;28;20091;-50
2021/01/24 00:09:57;;;;;;;1.48;1.00;;;19.60;45.10;;;;;;6204276;28;20459;-53
2021/01/24 00:12:57;;;;;;;1.15;0.90;;;19.60;45.90;;;;;;6217957;28;20109;-51
2021/01/24 00:15:58;;;;;;;1.00;0.80;;;19.60;45.10;;;;;;6219435;28;20022;-51
2021/01/24 00:18:58;;;;;;;1.00;0.88;;;19.60;45.20;;;;;;6219179;28;20018;-50
2021/01/24 00:21:59;;;;;;;0.77;0.73;;;19.60;45.10;;;;;;6219751;28;20613;-49
2021/01/24 00:24:59;;;;;;;1.10;0.80;;;19.60;45.20;;;;;;6219378;28;20430;-50
2021/01/24 00:28:00;;;;;;;1.15;0.88;;;19.60;45.10;;;;;;6219253;28;20388;-49
2021/01/24 00:31:01;;;;;;;1.02;0.82;;;19.60;45.10;;;;;;6219085;28;20034;-49
2021/01/24 00:34:02;;;;;;;1.20;0.80;;;19.60;45.10;;;;;;6219569;28;20181;-53
2021/01/24 00:37:03;;;;;;;1.35;0.98;;;19.60;45.10;;;;;;6218377;28;20666;-56
2021/01/24 00:40:05;;;;;;;0.75;0.70;;;19.60;45.10;;;;;;6219224;28;20037;-51
2021/01/24 00:43:05;;;;;;;1.08;0.90;;;19.60;45.10;;;;;;6218938;28;20022;-49
2021/01/24 00:46:06;;;;;;;1.25;0.80;;;19.60;45.20;;;;;;6219125;28;20029;-49
2021/01/24 00:49:07;;;;;;;1.30;0.90;;;19.60;45.10;;;;;;6219001;28;20421;-51
2021/01/24 00:52:08;;;;;;;1.20;0.90;;;19.50;45.10;;;;;;6218908;28;20083;-51
2021/01/24 00:55:08;;;;;;;1.08;0.98;;;19.50;45.10;;;;;;6219343;28;20104;-51
2021/01/24 00:58:09;;;;;;;1.23;0.90;;;19.60;45.10;;;;;;6218981;28;20025;-52
2021/01/24 01:01:10;;;;;;;1.30;0.90;;;19.50;45.00;;;;;;6213585;28;20026;-49
2021/01/24 01:04:10;;;;;;;0.80;0.80;;;19.50;45.10;;;;;;6209476;28;20060;-50
2021/01/24 01:07:11;;;;;;;1.05;0.95;;;19.50;45.10;;;;;;6218341;28;20034;-51
2021/01/24 01:10:12;;;;;;;1.02;0.70;;;19.50;45.10;;;;;;6197912;28;20023;-56
2021/01/24 01:13:12;;;;;;;0.75;0.70;;;19.50;45.10;;;;;;6213748;28;20395;-52
2021/01/24 01:16:13;;;;;;;0.70;0.70;;;19.50;45.10;;;;;;6218299;28;20030;-55
2021/01/24 01:19:13;;;;;;;1.08;0.90;;;19.50;45.10;;;;;;6218333;28;20450;-50
2021/01/24 01:22:14;;;;;;;1.38;0.90;;;19.50;45.20;;;;;;6207243;28;20038;-50
2021/01/24 01:25:14;;;;;;;1.30;0.90;;;19.50;45.10;;;;;;6193501;28;20026;-50
2021/01/24 01:28:15;;;;;;;1.13;0.90;;;19.50;45.10;;;;;;6193664;28;20030;-53
2021/01/24 01:31:16;;;;;;;1.48;0.63;;;19.50;45.10;;;;;;6193150;28;20097;-49
2021/01/24 01:34:16;;;;;;;1.15;0.90;;;19.50;45.20;;;;;;6193458;28;20097;-49
2021/01/24 01:37:17;;;;;;;0.80;0.80;;;19.50;45.80;;;;;;6202056;28;20133;-52
2021/01/24 01:40:17;;;;;;;1.45;1.05;;;19.50;45.10;;;;;;6217687;28;20079;-48
2021/01/24 01:43:18;;;;;;;0.90;0.75;;;19.50;45.20;;;;;;6217736;28;20034;-48
2021/01/24 01:46:22;;;;;;;0.88;0.60;;;19.50;45.20;;;;;;6218105;28;20109;-51
2021/01/24 01:49:24;;;;;;;1.17;0.90;;;19.50;45.10;;;;;;6172239;28;20137;-52
2021/01/24 01:52:26;;;;;;;0.98;0.77;;;19.50;45.30;;;;;;6189471;28;20026;-49
2021/01/24 01:55:27;;;;;;;0.60;0.60;;;19.50;45.20;;;;;;6222036;28;20061;-51
2021/01/24 01:58:28;;;;;;;0.90;0.60;;;19.50;45.10;;;;;;6222268;28;20558;-51
2021/01/24 02:01:57;;;;;;;0.77;0.77;;;19.50;45.20;;;;;;6222219;28;20038;-50
2021/01/24 02:05:02;;;;;;;1.38;0.88;;;19.50;45.20;;;;;;6222076;28;20084;-52
2021/01/24 02:08:34;;;;;;;1.13;0.70;;;19.50;45.20;;;;;;6222075;28;20037;-51
2021/01/24 02:12:10;;;;;;;0.70;0.63;;;19.50;45.20;;;;;;6221557;28;20850;-51
2021/01/24 02:15:16;;;;;;;1.07;0.80;;;19.50;45.20;;;;;;6222312;28;20026;-55
2021/01/24 02:18:20;;;;;;;0.80;0.65;;;19.50;45.20;;;;;;6221975;28;20073;-50
2021/01/24 02:21:31;;;;;;;1.00;0.70;;;19.50;45.20;;;;;;6221868;28;20058;-52
2021/01/24 02:24:38;;;;;;;1.73;1.00;;;19.50;45.20;;;;;;6222014;28;20018;-51
2021/01/24 02:27:47;;;;;;;1.50;0.82;;;19.50;45.20;;;;;;6221782;28;20065;-54
2021/01/24 02:30:48;;;;;;;1.55;0.85;;;19.50;45.10;;;;;;6221615;28;20033;-54
2021/01/24 02:33:50;;;;;;;1.02;0.93;;;19.50;45.20;;;;;;6221426;28;20030;-51
2021/01/24 02:36:52;;;;;;;0.95;0.77;;;19.50;45.30;;;;;;6221716;28;20034;-50
2021/01/24 02:39:53;;;;;;;1.10;0.90;;;19.50;45.30;;;;;;6221060;28;20026;-51
2021/01/24 02:42:54;;;;;;;0.90;0.88;;;19.50;45.20;;;;;;6221652;28;20186;-52
2021/01/24 02:45:56;;;;;;;0.90;0.77;;;19.50;45.20;;;;;;6221811;28;20503;-49
2021/01/24 02:48:56;;;;;;;0.75;0.75;;;19.50;45.30;;;;;;6221333;28;20108;-51
2021/01/24 02:51:58;;;;;;;0.85;0.70;;;19.40;45.10;;;;;;6221748;28;20032;-52
2021/01/24 02:54:59;;;;;;;1.20;0.90;;;19.40;45.10;;;;;;6221632;28;20804;-53
2021/01/24 02:58:00;;;;;;;1.35;0.90;;;19.40;45.90;;;;;;6221259;28;20495;-51
2021/01/24 03:01:01;;;;;;;0.50;0.50;;;19.40;45.20;;;;;;6220614;28;20104;-54
2021/01/24 03:04:02;;;;;;;0.70;0.60;;;19.40;45.20;;;;;;6221042;28;20072;-50
2021/01/24 03:07:04;;;;;;;0.98;0.77;;;19.50;45.30;;;;;;6221461;28;20062;-51
2021/01/24 03:10:05;;;;;;;0.95;0.80;;;19.50;45.30;;;;;;6218671;28;20108;-50
2021/01/24 03:13:18;;;;;;;0.90;0.77;;;19.50;45.30;;;;;;6221120;28;20462;-51
2021/01/24 03:16:19;;;;;;;0.85;0.75;;;19.40;45.20;;;;;;6221232;28;20033;-51
2021/01/24 03:19:21;;;;;;;0.70;0.70;;;19.40;45.10;;;;;;6220590;28;20026;-51
2021/01/24 03:22:22;;;;;;;0.75;0.75;;;19.40;45.10;;;;;;6220808;28;20036;-50
2021/01/24 03:25:24;;;;;;;1.35;0.93;;;19.40;45.10;;;;;;6220800;28;20479;-50
2021/01/24 03:28:25;;;;;;;0.80;0.60;;;19.40;45.10;;;;;;6220651;28;20394;-50
2021/01/24 03:31:25;;;;;;;0.80;0.57;;;19.40;45.30;;;;;;6219161;28;20029;-52
2021/01/24 03:34:26;;;;;;;0.82;0.70;;;19.40;45.20;;;;;;6220239;28;20441;-54
2021/01/24 03:37:26;;;;;;;1.00;0.90;;;19.40;45.20;;;;;;6220707;28;20370;-52
2021/01/24 03:40:27;;;;;;;1.10;0.90;;;19.40;45.10;;;;;;6220349;28;20050;-49
2021/01/24 03:43:28;;;;;;;1.05;0.88;;;19.40;45.20;;;;;;6220294;28;20072;-51
2021/01/24 03:46:28;;;;;;;0.70;0.70;;;19.40;45.30;;;;;;6220236;28;20037;-51
2021/01/24 03:49:29;;;;;;;0.90;0.70;;;19.40;45.20;;;;;;6213180;28;20480;-49
2021/01/24 03:52:29;;;;;;;1.10;0.90;;;19.40;45.20;;;;;;6196060;28;20030;-52
2021/01/24 03:55:30;;;;;;;1.85;0.90;;;19.40;45.30;;;;;;6210248;28;20481;-49
2021/01/24 03:58:31;;;;;;;0.70;0.70;;;19.40;45.30;;;;;;6220127;28;20105;-48
2021/01/24 04:01:33;;;;;;;1.02;0.93;;;19.40;45.30;;;;;;6219574;28;20029;-50
2021/01/24 04:04:34;;;;;;;0.80;0.80;;;19.40;45.40;;;;;;6219937;28;20064;-56
2021/01/24 04:07:34;;;;;;;1.08;0.77;;;19.40;45.30;;;;;;6220129;28;20026;-49
2021/01/24 04:10:35;;;;;;;1.40;0.95;;;19.40;45.30;;;;;;6207578;28;20080;-52
2021/01/24 04:13:36;;;;;;;1.13;0.68;;;19.40;45.30;;;;;;6219816;28;20026;-50
2021/01/24 04:16:36;;;;;;;1.10;0.98;;;19.40;45.30;;;;;;6219842;28;20022;-50
2021/01/24 04:19:37;;;;;;;1.20;0.90;;;19.40;45.20;;;;;;6219539;28;20042;-52
2021/01/24 04:22:37;;;;;;;1.15;0.80;;;19.40;45.30;;;;;;6219922;28;20040;-50
2021/01/24 04:25:38;;;;;;;0.88;0.80;;;19.30;45.20;;;;;;6219420;28;20387;-51
2021/01/24 04:28:40;;;;;;;1.17;0.70;;;19.30;45.20;;;;;;6219511;28;20030;-50
2021/01/24 04:31:40;;;;;;;0.80;0.80;;;19.40;45.30;;;;;;6218894;28;20045;-49
2021/01/24 04:34:41;;;;;;;1.05;0.80;;;19.40;45.30;;;;;;6218803;28;20026;-50
2021/01/24 04:37:42;;;;;;;0.80;0.70;;;19.40;45.30;;;;;;6219007;28;20022;-52
2021/01/24 04:40:42;;;;;;;0.70;0.70;;;19.40;45.30;;;;;;6218560;28;20034;-54
2021/01/24 04:43:45;;;;;;;1.08;0.80;;;19.40;45.30;;;;;;6218545;28;20029;-50
2021/01/24 04:46:47;;;;;;;0.70;0.70;;;19.40;45.30;;;;;;6219323;28;20072;-49
2021/01/24 04:49:48;;;;;;;0.95;0.70;;;19.30;45.30;;;;;;6218712;28;20034;-49
2021/01/24 04:52:50;;;;;;;0.70;0.70;;;19.30;45.30;;;;;;6218725;28;20053;-53
2021/01/24 04:55:51;;;;;;;1.02;0.80;;;19.40;45.40;;;;;;6218737;28;20633;-53
2021/01/24 04:58:54;;;;;;;0.80;0.70;;;19.30;45.20;;;;;;6218787;28;20038;-52
2021/01/24 05:01:55;;;;;;;1.70;0.80;;;19.30;45.30;;;;;;6218619;28;20025;-52
2021/01/24 05:04:55;;;;;;;1.05;0.90;;;19.30;45.40;;;;;;6218590;28;20510;-52
2021/01/24 05:07:57;;;;;;;1.25;0.80;;;19.30;45.20;;;;;;6215152;28;20088;-53
2021/01/24 05:11:05;;;;;;;1.05;0.70;;;19.40;45.10;;;;;;6213523;28;20032;-53
2021/01/24 05:14:17;;;;;;;1.00;0.90;;;19.50;45.10;;;;;;6218386;28;20155;-54
2021/01/24 05:17:18;;;;;;;1.52;1.00;;;19.50;45.00;;;;;;6218604;28;20403;-49
2021/01/24 05:20:26;;;;;;;0.85;0.70;;;19.50;45.10;;;;;;6218385;28;20045;-55
2021/01/24 05:23:27;;;;;;;0.93;0.80;;;19.60;45.00;;;;;;6217979;28;20022;-50
2021/01/24 05:26:27;;;;;;;0.60;0.57;;;19.50;44.90;;;;;;6218518;28;20030;-52
2021/01/24 05:29:29;;;;;;;1.02;0.93;;;19.60;44.90;;;;;;6218187;28;20136;-50
2021/01/24 05:32:41;;;;;;;0.88;0.80;;;19.60;45.00;;;;;;6218578;28;20030;-52
2021/01/24 05:35:47;;;;;;;0.70;0.60;;;19.60;45.00;;;;;;6218513;28;20077;-49
2021/01/24 05:38:48;;;;;;;0.77;0.77;;;19.60;45.00;;;;;;6218386;28;20073;-50
2021/01/24 05:41:50;;;;;;;0.63;0.60;;;19.60;45.10;;;;;;6209046;28;20038;-55
2021/01/24 05:44:51;;;;;;;0.90;0.80;;;19.60;45.10;;;;;;6218144;28;20060;-54
2021/01/24 05:47:52;;;;;;;0.45;0.43;;;19.60;45.00;;;;;;6218126;28;20506;-50
2021/01/24 05:50:52;;;;;;;0.65;0.60;;;19.60;45.00;;;;;;6217800;28;20514;-51
2021/01/24 05:53:56;;;;;;;0.57;0.57;;;19.60;45.00;;;;;;6217772;28;20030;-55
2021/01/24 05:56:57;;;;;;;1.05;0.77;;;19.60;45.10;;;;;;6218360;28;20029;-50
2021/01/24 05:59:59;;;;;;;0.98;0.60;;;19.60;45.00;;;;;;6217642;28;20041;-55
2021/01/24 06:02:59;;;;;;;0.85;0.70;;;19.60;45.00;;;;;;6217859;28;20049;-56
2021/01/24 06:06:00;;;;;;;0.82;0.73;;;19.60;45.00;;;;;;6218090;28;20065;-52
2021/01/24 06:09:00;;;;;;;0.82;0.50;;;19.60;44.90;;;;;;6198182;28;20033;-49
2021/01/24 06:12:03;;;;;;;1.38;0.65;;;19.60;45.00;;;;;;6199710;28;20058;-54
2021/01/24 06:15:04;;;;;;;0.98;0.60;;;19.60;45.10;;;;;;6217943;28;20105;-51
2021/01/24 06:18:14;;;;;;;0.80;0.70;;;19.60;45.10;;;;;;6218106;28;20026;-50
2021/01/24 06:21:20;;;;;;;0.75;0.70;;;19.60;45.10;;;;;;6217705;28;20501;-55
2021/01/24 06:24:33;;;;;;;0.68;0.50;;;19.60;45.10;;;;;;6217527;28;20018;-50
2021/01/24 06:27:39;;;;;;;0.65;0.55;;;19.60;45.10;;;;;;6212692;28;20045;-52
2021/01/24 06:30:44;;;;;;;0.77;0.70;;;19.60;45.10;;;;;;6193145;28;20045;-50
2021/01/24 06:33:46;;;;;;;1.05;0.60;;;19.60;45.10;;;;;;6209590;28;20075;-52
2021/01/24 06:37:05;;;;;;;0.95;0.70;;;19.60;45.10;;;;;;6220735;28;20026;-56
2021/01/24 06:40:20;;;;;;;0.50;0.50;;;19.60;45.10;;;;;;6221939;28;20494;-50
2021/01/24 06:43:44;;;;;;;0.90;0.63;;;19.60;45.10;;;;;;6221691;28;20034;-55
2021/01/24 06:46:44;;;;;;;0.40;0.40;;;19.60;45.10;;;;;;6222092;28;20060;-51
2021/01/24 06:49:45;;;;;;;0.50;0.50;;;19.70;45.20;;;;;;6221362;28;20034;-54
2021/01/24 06:53:05;;;;;;;0.73;0.57;;;19.60;45.10;;;;;;6221412;28;20057;-50
2021/01/24 06:56:06;;;;;;;0.80;0.60;;;19.60;45.10;;;;;;6221547;28;20069;-53
2021/01/24 06:59:08;;;;;;;0.70;0.50;;;19.70;45.10;;;;;;6221807;28;20037;-49
2021/01/24 07:02:22;;;;;;;0.30;0.30;;;19.60;45.10;;;;;;6221268;28;20395;-52
2021/01/24 07:05:24;;;;;;;0.60;0.60;;;19.70;45.20;;;;;;6221436;28;20562;-55
2021/01/24 07:08:29;;;;;;;1.00;0.65;;;19.70;45.20;;;;;;6221287;28;20422;-50
2021/01/24 07:11:50;;;;;;;0.47;0.47;;;19.60;45.10;;;;;;6221201;28;20442;-50
2021/01/24 07:14:51;;;;;;;0.55;0.38;;;19.70;45.20;;;;;;6220856;28;20050;-49
2021/01/24 07:17:59;;;;;;;0.88;0.68;;;19.70;45.30;;;;;;6220999;28;20033;-49
2021/01/24 07:21:00;;;;;;;0.82;0.63;;;19.70;45.20;;;;;;6221179;28;20701;-55
2021/01/24 07:24:02;;;;;;;0.60;0.57;;;19.60;45.20;;;;;;6219106;28;20080;-50
2021/01/24 07:27:07;;;;;;;0.43;0.43;;;19.70;45.20;;;;;;6211206;28;20027;-51
2021/01/24 07:30:09;;;;;;;0.45;0.45;;;19.70;45.30;;;;;;6215422;28;20033;-51
2021/01/24 07:33:10;;;;;;;0.70;0.50;;;19.70;45.20;;;;;;6220769;28;20026;-51
2021/01/24 07:36:16;;;;;;;0.73;0.52;;;19.70;45.90;;;;;;6220686;28;20057;-50
2021/01/24 07:39:18;;;;;;;0.68;0.68;;;19.70;45.30;;;;;;6220547;28;20041;-53
2021/01/24 07:42:19;;;;;;;0.55;0.47;;;19.70;45.30;;;;;;6220583;28;20096;-51
2021/01/24 07:45:20;;;;;;;0.75;0.60;;;19.70;45.20;;;;;;6220317;28;20072;-51
2021/01/24 07:48:21;;;;;;;0.55;0.52;;;19.70;45.20;;;;;;6220088;28;20128;-54
2021/01/24 07:51:22;;;;;;;0.60;0.60;;;19.70;45.20;;;;;;6220427;28;20087;-52
2021/01/24 07:54:23;;;;;;;0.95;0.47;;;19.70;45.20;;;;;;6220350;28;20045;-50
2021/01/24 07:57:25;;;;;;;0.65;0.35;;;19.70;45.20;;;;;;6211649;28;20488;-55
2021/01/24 08:00:26;;;;;;;0.75;0.50;;;19.70;45.30;;;;;;6213321;28;20036;-50
2021/01/24 08:03:28;;;;;;;0.45;0.40;;;19.70;45.30;;;;;;6218917;28;20041;-51
2021/01/24 08:06:30;;;;;;;0.63;0.50;;;19.70;45.30;;;;;;6195855;28;20034;-52
2021/01/24 08:09:31;;;;;;;0.50;0.45;;;19.70;45.30;;;;;;6203764;28;20030;-50
2021/01/24 08:12:31;;;;;;;0.50;0.45;;;19.70;45.30;;;;;;6220069;28;20100;-49
2021/01/24 08:15:33;;;;;;;0.82;0.63;;;19.70;45.20;;;;;;6219954;28;20030;-55
2021/01/24 08:18:34;;;;;;;0.35;0.35;;;19.70;45.20;;;;;;6219736;28;20407;-49
2021/01/24 08:21:36;;;;;;;0.60;0.60;;;19.70;45.30;;;;;;6219209;28;20042;-48
2021/01/24 08:24:38;;;;;;;0.60;0.40;;;19.70;45.30;;;;;;6219768;28;20026;-52
2021/01/24 08:27:39;;;;;;;0.80;0.60;;;19.70;45.30;;;;;;6219611;28;20029;-50
2021/01/24 08:30:43;;;;;;;0.95;0.70;;;19.70;45.30;;;;;;6219026;28;20022;-49
2021/01/24 08:33:44;;;;;;;0.80;0.50;;;19.70;45.30;;;;;;6219177;28;20026;-53
2021/01/24 08:36:44;;;;;;;0.40;0.40;;;19.70;45.30;;;;;;6218939;28;20112;-49
2021/01/24 08:39:46;;;;;;;0.52;0.50;;;19.70;45.30;;;;;;6219170;28;20083;-49
2021/01/24 08:42:49;;;;;;;0.73;0.60;;;19.70;45.30;;;;;;6219277;28;20022;-52
2021/01/24 08:45:49;;;;;;;0.57;0.50;;;19.70;45.30;;;;;;6218741;28;20650;-49
2021/01/24 08:49:09;;;;;;;1.05;0.60;;;19.70;45.30;;;;;;6219336;28;20029;-52
2021/01/24 08:52:20;;;;;;;0.43;0.43;;;19.70;45.30;;;;;;6219021;28;20701;-49
2021/01/24 08:55:21;;;;;;;0.30;0.30;;;19.70;45.30;;;;;;6218962;28;20030;-49
2021/01/24 08:58:26;;;;;;;0.55;0.50;;;19.70;45.30;;;;;;6218503;28;20541;-48
2021/01/24 09:01:26;;;;;;;0.55;0.55;;;19.70;45.30;;;;;;6218506;28;20157;-49
2021/01/24 09:04:29;;;;;;;0.40;0.40;;;19.70;45.30;;;;;;6218818;28;20050;-51
2021/01/24 09:07:41;;;;;;;0.40;0.40;;;19.70;45.30;;;;;;6218729;28;20057;-53
2021/01/24 09:10:42;;;;;;;0.43;0.40;;;19.70;45.30;;;;;;6186626;28;20026;-49
2021/01/24 09:13:42;;;;;;;0.65;0.50;;;19.70;45.30;;;;;;6218725;28;20394;-49
2021/01/24 09:16:43;;;;;;;0.80;0.40;;;19.70;45.30;;;;;;6218657;28;20041;-54
2021/01/24 09:19:45;;;;;;;0.50;0.50;;;19.70;45.30;;;;;;6218195;28;20042;-51
2021/01/24 09:22:47;;;;;;;0.65;0.47;;;19.70;45.30;;;;;;6198517;28;20045;-50
2021/01/24 09:25:48;;;;;;;0.70;0.50;;;19.70;45.30;;;;;;6194251;28;20440;-56
2021/01/24 09:28:48;;;;;;;0.60;0.50;;;19.70;45.30;;;;;;6194017;28;20030;-50
2021/01/24 09:31:49;;;;;;;0.65;0.50;;;19.70;45.30;;;;;;6208292;28;20041;-51
2021/01/24 09:34:49;;;;;;;0.77;0.55;;;19.70;45.30;;;;;;6218682;28;20052;-50
2021/01/24 09:37:50;;;;;;;0.70;0.40;;;19.70;45.30;;;;;;6196032;28;20358;-51
2021/01/24 09:40:50;;;;;;;0.82;0.60;;;19.70;45.30;;;;;;6199012;28;20033;-51
2021/01/24 09:43:52;;;;;;;1.15;0.50;;;19.70;45.30;;;;;;6218380;28;20077;-53
2021/01/24 09:46:53;;;;;;;0.43;0.40;;;19.70;45.30;;;;;;6205295;28;20536;-49
2021/01/24 09:49:54;;;;;;;0.40;0.40;;;19.70;45.30;;;;;;6193670;28;20030;-49
2021/01/24 09:52:54;;;;;;;0.60;0.57;;;19.70;45.30;;;;;;6213111;28;20503;-51
2021/01/24 09:55:55;;;;;;;0.98;0.50;;;19.70;45.30;;;;;;6213787;28;20018;-52
2021/01/24 09:58:56;;;;;;;0.60;0.40;;;19.70;45.30;;;;;;6193817;28;20035;-49
2021/01/24 10:01:58;;;;;;;0.32;0.32;;;19.70;45.30;;;;;;6205049;28;20026;-56
2021/01/24 10:04:58;;;;;;;0.43;0.40;;;19.70;45.30;;;;;;6217931;28;20042;-51
2021/01/24 10:07:59;;;;;;;1.17;0.70;;;19.70;45.30;;;;;;6215248;28;20487;-51
2021/01/24 10:11:00;;;;;;;0.35;0.35;;;19.70;45.30;;;;;;6210064;28;20707;-49
2021/01/24 10:14:00;;;;;;;0.63;0.57;;;19.70;45.30;;;;;;6222618;28;20383;-51
2021/01/24 10:17:01;;;;;;;0.40;0.40;;;19.70;45.20;;;;;;6222365;28;20498;-54
2021/01/24 10:20:02;;;;;;;0.50;0.40;;;19.70;45.30;;;;;;6222040;28;20152;-53
2021/01/24 10:23:03;;;;;;;0.55;0.55;;;19.70;45.20;;;;;;6222052;28;20034;-55
2021/01/24 10:26:03;;;;;;;0.40;0.40;;;19.70;45.30;;;;;;6222619;28;20041;-50
2021/01/24 10:29:04;;;;;;;0.50;0.50;;;19.70;45.30;;;;;;6221783;28;20064;-53
2021/01/24 10:32:05;;;;;;;0.50;0.45;;;19.70;45.30;;;;;;6221828;28;20105;-49
2021/01/24 10:35:06;;;;;;;0.70;0.50;;;19.70;45.20;;;;;;6222098;28;20028;-54
2021/01/24 10:38:07;;;;;;;14.82;1.90;;;19.70;45.20;;;;;;6205288;28;20313;-51
2021/01/24 10:41:08;;;;;;;10.75;3.22;;;19.60;42.70;;;;;;6191606;28;20091;-62
2021/01/24 10:44:08;;;;;;;23.55;2.50;;;19.40;39.10;;;;;;6204920;28;20034;-52
2021/01/24 10:47:09;;;;;;;9.30;1.90;;;19.40;41.20;;;;;;6202400;28;20037;-53
2021/01/24 10:50:10;;;;;;;15.40;1.92;;;19.60;42.60;;;;;;6208189;28;20616;-56
2021/01/24 10:53:11;;;;;;;11.07;1.40;;;19.80;42.30;;;;;;6201701;28;20034;-55
2021/01/24 10:56:11;;;;;;;7.97;1.30;;;19.90;42.50;;;;;;6196300;28;20034;-53
2021/01/24 10:59:13;;;;;;;7.72;1.40;;;20.00;43.10;;;;;;6210743;28;20030;-59
2021/01/24 11:02:13;;;;;;;5.93;1.08;;;20.00;43.10;;;;;;6198853;28;20037;-58
2021/01/24 11:05:14;;;;;;;4.57;1.30;;;20.10;43.10;;;;;;6202139;28;20051;-60
2021/01/24 11:08:15;;;;;;;13.23;1.30;;;20.20;43.30;;;;;;6206386;28;20083;-57
2021/01/24 11:11:16;;;;;;;18.50;1.85;;;20.20;43.40;;;;;;6196912;28;20386;-60
2021/01/24 11:14:16;;;;;;;13.98;1.20;;;20.30;43.60;;;;;;6196754;28;20023;-60
2021/01/24 11:17:17;;;;;;;11.20;1.50;;;20.30;43.10;;;;;;6198654;28;20413;-61
2021/01/24 11:20:18;;;;;;;9.85;1.17;;;20.40;43.10;;;;;;6206981;28;20439;-60
2021/01/24 11:23:19;;;;;;;14.18;1.25;;;20.40;43.20;;;;;;6200515;28;20034;-59
2021/01/24 11:26:19;;;;;;;7.03;1.13;;;20.40;43.40;;;;;;6200293;28;20413;-57
2021/01/24 11:29:20;;;;;;;26.85;1.83;;;20.40;43.50;;;;;;6207130;28;20034;-60
2021/01/24 11:32:22;;;;;;;8.25;1.13;;;20.40;43.50;;;;;;6193272;28;20022;-62
2021/01/24 11:35:23;;;;;;;14.98;1.88;;;20.40;43.60;;;;;;6194653;28;20407;-60
2021/01/24 11:38:23;;;;;;;25.33;1.67;;;20.50;43.50;;;;;;6203267;28;20037;-56
2021/01/24 11:41:24;;;;;;;10.38;1.17;;;20.50;43.50;;;;;;6199679;28;20077;-58
2021/01/24 11:44:25;;;;;;;6.80;1.20;;;20.50;43.60;;;;;;6210147;28;20034;-59
2021/01/24 11:47:27;;;;;;;35.78;1.90;;;20.40;43.80;;;;;;6199617;28;20124;-61
2021/01/24 11:50:28;;;;;;;18.98;1.73;;;20.50;43.80;;;;;;6210773;28;20018;-59
2021/01/24 11:53:29;;;;;;;21.95;1.58;;;20.40;44.00;;;;;;6218245;28;20025;-60
2021/01/24 11:56:29;;;;;;;16.70;1.15;;;20.50;43.80;;;;;;6202314;28;20027;-61
2021/01/24 11:59:30;;;;;;;19.05;2.42;;;20.50;43.70;;;;;;6208671;28;20022;-60
2021/01/24 12:02:30;;;;;;;16.60;1.27;;;20.40;43.80;;;;;;6194834;28;20031;-60
2021/01/24 12:05:32;;;;;;;8.27;1.10;;;20.40;44.10;;;;;;6217836;28;20030;-60
2021/01/24 12:08:32;;;;;;;11.75;2.22;;;20.40;43.40;;;;;;6216448;28;20033;-59
2021/01/24 12:11:35;;;;;;;18.17;2.08;;;20.20;42.40;;;;;;6218789;28;20022;-58
2021/01/24 12:14:36;;;;;;;11.00;1.55;;;20.20;43.10;;;;;;6220291;28;20022;-58
2021/01/24 12:17:37;;;;;;;6.10;1.40;;;20.10;43.20;;;;;;6220153;28;20057;-60
2021/01/24 12:20:37;;;;;;;5.07;1.60;;;20.10;43.40;;;;;;6219965;28;20068;-57
2021/01/24 12:23:38;;;;;;;9.45;1.50;;;20.10;43.60;;;;;;6218397;28;20037;-56
2021/01/24 12:26:38;;;;;;;7.80;1.65;;;20.10;43.60;;;;;;6220165;28;20026;-60
2021/01/24 12:29:40;;;;;;;4.18;1.42;;;20.10;43.60;;;;;;6210071;28;20088;-57
2021/01/24 12:32:41;;;;;;;8.43;1.38;;;20.10;43.90;;;;;;6194655;28;20030;-60
2021/01/24 12:35:42;;;;;;;5.13;1.40;;;20.10;43.80;;;;;;6212254;28;20026;-59
2021/01/24 12:38:43;;;;;;;6.57;1.58;;;20.10;43.90;;;;;;6219498;28;20029;-60
2021/01/24 12:41:43;;;;;;;5.10;1.30;;;20.00;43.90;;;;;;6219345;28;20042;-60
2021/01/24 12:44:44;;;;;;;3.25;1.17;;;20.10;44.00;;;;;;6219440;28;20072;-61
2021/01/24 12:47:44;;;;;;;4.97;1.30;;;20.10;44.00;;;;;;6217797;28;20022;-54
2021/01/24 12:50:45;;;;;;;7.40;1.70;;;20.00;43.80;;;;;;6218964;28;20022;-60
2021/01/24 12:53:45;;;;;;;12.63;1.52;;;20.00;43.80;;;;;;6219334;28;20602;-60
2021/01/24 12:56:46;;;;;;;6.22;1.30;;;20.00;44.00;;;;;;6219104;28;20048;-58
2021/01/24 12:59:46;;;;;;;6.07;1.50;;;20.00;44.60;;;;;;6218859;28;20022;-57
2021/01/24 13:02:47;;;;;;;4.45;1.30;;;20.00;44.10;;;;;;6218934;28;20046;-60
2021/01/24 13:05:47;;;;;;;2.33;0.90;;;20.00;44.00;;;;;;6218912;28;20049;-60
2021/01/24 13:08:48;;;;;;;3.55;1.60;;;20.00;44.30;;;;;;6209789;28;20045;-59
2021/01/24 13:11:49;;;;;;;2.83;1.17;;;20.00;44.10;;;;;;6215665;28;20104;-59
2021/01/24 13:14:49;;;;;;;3.63;1.50;;;20.00;44.00;;;;;;6218947;28;20029;-61
2021/01/24 13:17:50;;;;;;;3.88;1.00;;;20.00;44.10;;;;;;6218796;28;20022;-60
2021/01/24 13:20:50;;;;;;;4.57;1.17;;;20.00;44.20;;;;;;6218530;28;20064;-58
2021/01/24 13:23:52;;;;;;;2.38;1.33;;;20.00;44.20;;;;;;6218802;28;20129;-57
2021/01/24 13:26:53;;;;;;;2.78;1.35;;;20.00;44.30;;;;;;6218772;28;20021;-53
2021/01/24 13:29:54;;;;;;;2.30;1.10;;;20.00;44.30;;;;;;6218329;28;20033;-60
2021/01/24 13:32:54;;;;;;;2.28;1.10;;;20.00;44.30;;;;;;6218840;28;20029;-57
2021/01/24 13:35:55;;;;;;;1.85;1.00;;;20.00;44.30;;;;;;6218449;28;20097;-61
2021/01/24 13:38:55;;;;;;;1.77;0.90;;;20.00;44.40;;;;;;6218184;28;20049;-60
2021/01/24 13:41:56;;;;;;;1.98;1.17;;;20.00;44.30;;;;;;6218282;28;20384;-57
2021/01/24 13:44:56;;;;;;;3.28;1.45;;;20.00;45.10;;;;;;6220315;28;20025;-61
2021/01/24 13:47:57;;;;;;;2.10;0.90;;;20.00;44.50;;;;;;6223402;28;20038;-59
2021/01/24 13:50:57;;;;;;;2.65;0.90;;;19.90;44.40;;;;;;6223253;28;20072;-59
2021/01/24 13:53:58;;;;;;;3.22;1.00;;;19.90;44.40;;;;;;6223223;28;20105;-60
2021/01/24 13:56:58;;;;;;;2.05;1.23;;;20.00;44.50;;;;;;6222870;28;20100;-59
2021/01/24 13:59:59;;;;;;;1.92;0.90;;;20.00;44.50;;;;;;6222682;28;20415;-60
2021/01/24 14:03:00;;;;;;;1.70;1.00;;;20.00;44.50;;;;;;6222590;28;20542;-59
2021/01/24 14:06:00;;;;;;;2.47;0.95;;;20.00;44.40;;;;;;6223134;28;20057;-58
2021/01/24 14:09:01;;;;;;;2.13;0.70;;;20.00;44.40;;;;;;6211792;28;20426;-60
2021/01/24 14:12:02;;;;;;;4.43;1.02;;;20.00;44.50;;;;;;6212913;28;20084;-59
2021/01/24 14:15:03;;;;;;;2.05;1.10;;;20.00;44.50;;;;;;6222713;28;20030;-58
2021/01/24 14:18:05;;;;;;;2.92;0.90;;;19.90;44.50;;;;;;6222492;28;20076;-60
2021/01/24 14:21:06;;;;;;;1.60;0.80;;;20.00;44.60;;;;;;6222323;28;20022;-60
2021/01/24 14:24:07;;;;;;;1.88;0.80;;;20.00;44.60;;;;;;6219182;28;20022;-61
2021/01/24 14:27:08;;;;;;;1.10;0.80;;;20.00;44.50;;;;;;6209841;28;20077;-60
2021/01/24 14:30:09;;;;;;;1.55;0.90;;;20.00;44.50;;;;;;6222328;28;20467;-59
2021/01/24 14:33:11;;;;;;;3.92;1.10;;;19.90;44.40;;;;;;6222269;28;20021;-60
2021/01/24 14:36:11;;;;;;;1.60;0.88;;;20.00;44.50;;;;;;6222326;28;20105;-60
2021/01/24 14:39:12;;;;;;;1.65;0.90;;;20.00;44.60;;;;;;6222436;28;20025;-60
2021/01/24 14:42:12;;;;;;;1.23;1.00;;;20.00;44.60;;;;;;6221991;28;20481;-58
2021/01/24 14:45:13;;;;;;;1.90;1.02;;;19.90;44.50;;;;;;6222063;28;20034;-60
2021/01/24 14:48:14;;;;;;;2.70;0.88;;;19.90;44.50;;;;;;6222040;28;20025;-59
2021/01/24 14:51:15;;;;;;;1.63;0.93;;;20.00;44.50;;;;;;6218150;28;20506;-61
2021/01/24 14:54:15;;;;;;;0.98;0.73;;;20.00;44.60;;;;;;6222299;28;20475;-60
2021/01/24 14:57:16;;;;;;;1.00;0.68;;;20.00;44.50;;;;;;6221094;28;20375;-61
2021/01/24 15:00:17;;;;;;;0.85;0.65;;;19.90;44.60;;;;;;6221486;28;20545;-60
2021/01/24 15:03:18;;;;;;;1.17;1.02;;;19.90;44.50;;;;;;6221750;28;20092;-60
2021/01/24 15:06:18;;;;;;;1.50;0.80;;;19.90;44.50;;;;;;6221865;28;20050;-58
2021/01/24 15:09:19;;;;;;;1.70;1.10;;;19.90;44.60;;;;;;6207799;28;20092;-60
2021/01/24 15:12:22;;;;;;;1.38;0.73;;;20.00;44.60;;;;;;6204029;28;20022;-60
2021/01/24 15:15:23;;;;;;;1.13;0.80;;;19.90;44.60;;;;;;6221656;28;20073;-60
2021/01/24 15:18:23;;;;;;;1.15;0.85;;;19.90;44.60;;;;;;6221252;28;20530;-59
2021/01/24 15:21:24;;;;;;;1.30;0.80;;;19.90;44.50;;;;;;6221141;28;20034;-60
2021/01/24 15:24:25;;;;;;;1.42;1.00;;;19.90;44.60;;;;;;6220946;28;20028;-60
2021/01/24 15:27:25;;;;;;;1.00;0.90;;;19.90;44.60;;;;;;6221123;28;20390;-60
2021/01/24 15:30:26;;;;;;;1.15;0.70;;;19.90;44.60;;;;;;6221013;28;20021;-60
2021/01/24 15:33:27;;;;;;;1.35;0.95;;;20.00;44.60;;;;;;6220953;28;20185;-58
2021/01/24 15:36:31;;;;;;;1.23;0.60;;;20.00;44.60;;;;;;6220967;28;20832;-52
2021/01/24 15:39:32;;;;;;;1.10;0.70;;;20.00;44.60;;;;;;6220457;28;20025;-60
2021/01/24 15:42:33;;;;;;;2.58;0.80;;;19.90;44.50;;;;;;6220825;28;20026;-59
2021/01/24 15:45:34;;;;;;;0.98;0.85;;;20.00;44.60;;;;;;6220740;28;20091;-60